Chickering American River Reserve, California Weather observations

Data are for 10 minute period ending at time listed.
 Day   Time   Solar   Ave.   Ave.  Ave.  Vector  Max.   Baro.   Total    
  of    of     Rad.   Air    Rel.  Wind   Wind   Wind  Press.  Precip.   
Year   Day            Temp.  Hum.  Speed  Dir.   Gust                    
2014   (PST)  Kw/m2    F      %     mph   deg.    mph    mb.     in.     
-------------------------------------------------------------------------
 358    7:10   0.00   39.8    62    2.1   250     5.9   818.0    0.00 
 358    7:20   0.00   40.4    61    1.1    38     5.0   817.7    0.00 
 358    7:30   0.00   40.4    60    2.1   210     8.3   817.4    0.00 
 358    7:40   0.00   41.0    61    1.3   318     5.6   817.1    0.00 
 358    7:50   0.01   40.8    60    1.3   127     4.8   817.2    0.00 
 358    8:00   0.02   41.1    60    2.0   221     7.2   817.2    0.00 
 358    8:10   0.03   41.4    60    1.5   177     6.5   817.1    0.00 
 358    8:20   0.04   41.7    59    1.5   196     5.7   817.2    0.00 
 358    8:30   0.04   42.3    58    1.9   176     6.9   817.4    0.00 
 358    8:40   0.07   42.3    58    2.2   198     7.2   817.2    0.00 
 358    8:50   0.07   42.4    59    2.5   208     7.7   817.1    0.00 
 358    9:00   0.07   42.4    60    1.7   194     7.3   817.2    0.00 
 358    9:10   100.00  99999.0   99999  99999.0   99999   99999.0   99999.0   99999.00 
 358    9:20   100.00  99999.0   99999  99999.0   99999   99999.0   99999.0   99999.00 
 358    9:30   100.00  99999.0   99999  99999.0   99999   99999.0   99999.0   99999.00 
 358    9:40   100.00  99999.0   99999  99999.0   99999   99999.0   99999.0   99999.00 
 358    9:50   100.00  99999.0   99999  99999.0   99999   99999.0   99999.0   99999.00 
 358   10:00   100.00  99999.0   99999  99999.0   99999   99999.0   99999.0   99999.00 
 358   10:10   100.00  99999.0   99999  99999.0   99999   99999.0   99999.0   99999.00 
 358   10:20   100.00  99999.0   99999  99999.0   99999   99999.0   99999.0   99999.00 
 358   10:30   100.00  99999.0   99999  99999.0   99999   99999.0   99999.0   99999.00 
 358   10:40   100.00  99999.0   99999  99999.0   99999   99999.0   99999.0   99999.00 
 358   10:50   100.00  99999.0   99999  99999.0   99999   99999.0   99999.0   99999.00 
 358   11:00   0.06   41.5    65    2.4   187    16.0   815.7    0.00 
 358   11:10   0.05   41.5    65    2.4   178     8.8   815.5    0.00 
 358   11:20   0.04   41.4    65    2.0   272     5.2   815.1    0.00 
 358   11:30   0.03   40.3    70    3.2   234    15.5   815.0    0.00 
 358   11:40   0.05   39.7    73    3.0   171    12.3   814.4    0.00 
 358   11:50   0.03   39.3    76    1.4    60     4.8   814.2    0.00 
 358   12:00   0.05   39.2    76    2.6   174    14.3   813.7    0.00 
 358   12:10   0.03   39.4    75    1.8   357     5.0   813.4    0.00 
 358   12:20   0.03   38.8    77    2.1   184     8.6   813.0    0.00 
 358   12:30   0.04   38.2    81    2.0   140     7.5   812.6    0.00 
 358   12:40   0.04   38.2    79    2.7   276     9.8   812.3    0.00 
 358   12:50   0.07   38.1    80    2.7   162     6.7   811.9    0.00 
 358   13:00   0.09   37.8    80    4.2   174    11.0   811.0    0.00 
 358   13:10   0.07   37.5    82    4.0   150    15.6   810.1    0.00 
 358   13:20   0.01   37.2    83    4.1   250    12.9   810.3    0.00 
 358   13:30   0.01   36.3    88    2.5   114     6.6   810.4    0.00 
 358   13:40   0.02   35.4    92    2.5   150    11.5   809.7    0.00 
 358   13:50   0.02   35.2    93    2.6   205     9.3   809.0    0.00 
 358   14:00   0.01   34.6    95    2.3   310     6.0   809.2    0.00 
 358   14:10   0.01   34.6    94    1.8   116     6.4   809.1    0.00 
 358   14:20   0.01   34.2    95    2.5    25    12.1   808.9    0.00 
 358   14:30   0.02   34.2    95    1.7   164     5.6   808.7    0.00 
 358   14:40   0.02   33.9    96    1.0   113     5.6   808.6    0.00 
 358   14:50   0.02   33.7    97    1.9    72     6.0   808.6    0.00 
 358   15:00   0.01   34.1    96    1.8    95     6.1   808.3    0.00 
 358   15:10   0.01   34.4    95    2.1    31     6.4   808.2    0.00 
 358   15:20   0.01   34.9    94    3.2   166    13.4   808.2    0.00 
 358   15:30   0.02   34.8    95    2.9    71    11.7   808.2    0.00 
 358   15:40   0.03   35.1    95    3.3    94    12.6   808.2    0.00 
 358   15:50   0.04   35.5    94    3.9   174    12.1   807.9    0.00 
 358   16:00   0.03   35.5    92    4.0   116    14.2   807.9    0.00 
 358   16:10   0.02   34.7    94    3.5    57    19.6   808.0    0.00 
 358   16:20   0.00   34.2    94    2.9    49    10.0   808.0    0.00 
 358   16:30   0.00   33.4    96    3.0    77    11.5   808.0    0.00 
 358   16:40   0.00   32.6    97    2.9    82    12.9   808.1    0.00 
 358   16:50   0.00   32.4    97    3.1   112    14.0   808.4    0.00 
 358   17:00   0.00   32.3    96    3.4    32    20.2   808.7    0.00 
 358   17:10   0.00   31.6    97    3.5    56    12.9   809.2    0.00 
 358   17:20   0.00   30.2    97    2.6    61    11.5   809.3    0.00 
 358   17:30   0.00   29.9    97    2.1    45     6.0   809.6    0.00 
 358   17:40   0.00   29.9    97    1.2    95     5.0   810.0    0.00 
 358   17:50   0.00   29.8    94    1.6   220     6.1   810.0    0.00 
 358   18:00   0.00   29.7    95    1.6    51     5.1   810.1    0.00 
 358   18:10   0.00   29.6    96    0.7    81     2.3   810.2    0.00 
 358   18:20   0.00   29.6    96    0.9   115     3.8   810.3    0.00 
 358   18:30   0.00   29.7    96    1.1    49     3.1   810.5    0.00 
 358   18:40   0.00   29.7    98    1.4    44     6.0   811.0    0.00 
 358   18:50   0.00   29.0    97    1.3   207     3.7   810.9    0.00 
 358   19:00   0.00   28.5    97    1.4   221     3.6   810.9    0.00 
 358   19:10   0.00   28.1    97    1.2   282     7.0   810.9    0.00 
 358   19:20   0.00   27.8    95    1.6   353     6.1   811.0    0.00 
 358   19:30   0.00   27.5    90    2.2   305     6.1   811.1    0.00 
 358   19:40   0.00   27.0    90    0.8   258     4.2   811.1    0.00 
 358   19:50   0.00   26.7    91    1.4   317     4.5   811.1    0.00 
 358   20:00   0.00   26.2    92    1.0   209     2.9   811.2    0.00 
 358   20:10   0.00   25.9    95    1.1   174     5.3   811.1    0.00 
 358   20:20   0.00   25.6    95    1.5   234     3.7   811.0    0.00 
 358   20:30   0.00   25.5    89    2.6    65     9.6   810.9    0.00 
 358   20:40   0.00   25.4    89    1.1   325     3.9   810.9    0.00 
 358   20:50   0.00   24.6    93    1.8   236     3.1   810.9    0.00 
 358   21:00   0.00   24.2    94    1.6   218     3.7   811.0    0.00 
 358   21:10   0.00   23.9    94    0.8   237     2.4   811.3    0.00 
 358   21:20   0.00   23.9    88    1.5    90     7.7   811.5    0.00 
 358   21:30   0.00   24.0    89    0.7   228     3.3   811.8    0.00 
 358   21:40   0.00   23.3    92    1.4   137     4.9   811.7    0.00 
 358   21:50   0.00   23.2    91    1.5   175     7.7   811.8    0.00 
 358   22:00   0.00   22.9    93    1.7   228     5.1   812.0    0.00 
 358   22:10   0.00   22.7    91    1.3   288     7.6   812.1    0.00 
 358   22:20   0.00   23.2    86    2.2    87     8.7   812.0    0.00 
 358   22:30   0.00   23.5    84    1.7    63     5.0   812.1    0.00 
 358   22:40   0.00   23.0    88    2.2    56     9.3   812.2    0.00 
 358   22:50   0.00   23.5    80    2.7    38     9.1   812.3    0.00 
 358   23:00   0.00   22.9    86    2.3    53     7.5   812.4    0.00 
 358   23:10   0.00   22.7    86    1.9    48    10.2   812.4    0.00 
 358   23:20   0.00   22.4    85    2.5    68     9.6   812.5    0.00 
 358   23:30   0.00   22.8    82    2.6    55     7.3   812.6    0.00 
 358   23:40   0.00   22.9    84    3.1    58    11.1   812.7    0.00 
 358   23:50   0.00   22.8    83    2.8    60     7.4   812.6    0.00 
 359    0:00   0.00   22.9    85    2.7    48    13.4   812.6    0.00 
 359    0:10   0.00   22.7    85    2.6    31     7.9   812.7    0.00 
 359    0:20   0.00   22.8    83    3.4    46     8.8   812.8    0.00 
 359    0:30   0.00   22.7    84    2.0    44     6.4   812.9    0.00 
 359    0:40   0.00   22.7    84    1.5    39     5.4   813.0    0.00 
 359    0:50   0.00   22.5    85    2.6    66     8.3   812.9    0.00 
 359    1:00   0.00   22.6    80    3.6    73     9.7   812.8    0.00 
 359    1:10   0.00   22.7    79    3.3    57    12.1   812.8    0.00 
 359    1:20   0.00   22.7    79    2.8    60     6.5   812.8    0.00 
 359    1:30   0.00   22.4    82    2.9    47    12.1   812.9    0.00 
 359    1:40   0.00   22.4    80    3.8    36    13.4   812.9    0.00 
 359    1:50   0.00   22.4    80    4.6    54    13.0   813.0    0.00 
 359    2:00   0.00   22.4    80    3.4    51    13.4   813.1    0.00 
 359    2:10   0.00   22.3    81    2.9    31     7.0   813.1    0.00 
 359    2:20   0.00   22.3    79    3.8    33    10.9   813.1    0.00 
 359    2:30   0.00   22.2    80    2.9    67     9.3   813.2    0.00 
 359    2:40   0.00   22.3    80    3.2    43    11.8   813.3    0.00 
 359    2:50   0.00   22.2    80    2.0    74     8.1   813.3    0.00 
 359    3:00   0.00   22.5    79    2.5    54    12.1   813.1    0.00 
 359    3:10   0.00   22.5    78    4.4    47    16.1   813.1    0.00 
 359    3:20   0.00   22.0    82    1.9    42     7.0   813.1    0.00 
 359    3:30   0.00   21.9    79    3.5    59     9.7   813.1    0.00 
 359    3:40   0.00   22.3    78    3.8    53    10.1   813.1    0.00 
 359    3:50   0.00   22.4    77    3.6    38    13.5   812.9    0.00 
 359    4:00   0.00   22.4    78    3.6    68    13.7   812.8    0.00 
 359    4:10   0.00   22.1    79    2.5    49     7.7   812.8    0.00 
 359    4:20   0.00   21.8    80    2.9    55     9.3   812.8    0.00 
 359    4:30   0.00   21.8    83    1.6    26     5.9   812.8    0.00 
 359    4:40   0.00   21.8    78    2.8    65    12.3   812.9    0.00 
 359    4:50   0.00   22.2    77    3.2    53     8.4   812.8    0.00 
 359    5:00   0.00   22.3    78    2.7    42     7.4   812.9    0.00 
 359    5:10   0.00   22.4    77    2.4    40     9.9   812.9    0.00 
 359    5:20   0.00   22.7    74    1.7    30     8.9   813.1    0.00 
 359    5:30   0.00   22.1    81    1.9   166     4.0   813.4    0.00 
 359    5:40   0.00   21.9    79    2.9    57     7.6   813.5    0.00 
 359    5:50   0.00   22.1    78    2.6    76     8.3   813.4    0.00 
 359    6:00   0.00   22.4    76    3.0    73     9.3   813.4    0.00 
 359    6:10   0.00   22.0    78    1.9    69     5.9   813.5    0.00 
 359    6:20   0.00   22.1    78    1.5   100     7.8   813.4    0.00 
 359    6:30   0.00   22.2    77    3.5    88    10.2   813.3    0.00 
 359    6:40   0.00   22.7    76    2.5    84     7.9   813.2    0.00 
 359    6:50   0.00   22.6    77    1.5    96     5.6   813.1    0.00 
 359    7:00   0.00   22.5    78    2.1    54     9.8   813.2    0.00 

Return to Chickering American River Reserve graphs page.


Western Regional Climate Center,wrcc@dri.edu